createdAt,value
2017-09-04T00:00:00.330Z,0.00
2017-09-04T00:01:00.319Z,0.00
2017-09-04T00:02:00.312Z,0.00
2017-09-04T00:03:00.305Z,0.00
2017-09-04T00:04:00.297Z,0.00
2017-09-04T00:05:00.294Z,0.00
2017-09-04T00:06:00.287Z,0.00
2017-09-04T00:07:00.279Z,0.00
2017-09-04T00:08:00.271Z,0.00
2017-09-04T00:09:00.263Z,0.00
2017-09-04T00:10:00.255Z,0.00
2017-09-04T00:11:00.249Z,0.00
2017-09-04T00:12:00.240Z,0.00
2017-09-04T00:13:00.228Z,0.00
2017-09-04T00:14:00.222Z,0.00
2017-09-04T00:15:00.215Z,0.00
2017-09-04T00:16:00.206Z,0.00
2017-09-04T00:17:00.199Z,0.00
2017-09-04T00:18:00.192Z,0.00
2017-09-04T00:19:00.184Z,0.00
2017-09-04T00:20:00.175Z,0.00
2017-09-04T00:21:00.173Z,0.00
2017-09-04T00:22:00.166Z,0.00
2017-09-04T00:23:00.159Z,0.00
2017-09-04T00:24:00.149Z,0.00
2017-09-04T00:25:00.142Z,0.00
2017-09-04T00:26:00.136Z,0.00
2017-09-04T00:27:00.128Z,0.00
2017-09-04T00:28:00.120Z,0.00
2017-09-04T00:29:00.109Z,0.00
2017-09-04T00:30:00.100Z,0.00
2017-09-04T00:31:00.094Z,0.00
2017-09-04T00:32:00.087Z,0.00
2017-09-04T00:33:00.079Z,0.00
2017-09-04T00:34:00.072Z,0.00
2017-09-04T00:35:00.064Z,0.00
2017-09-04T00:36:00.057Z,0.00
2017-09-04T00:37:00.054Z,0.00
2017-09-04T00:38:00.047Z,0.00
2017-09-04T00:39:00.042Z,0.00
2017-09-04T00:40:00.038Z,0.00
2017-09-04T00:41:00.024Z,0.00
2017-09-04T00:42:00.018Z,0.00
2017-09-04T00:43:00.009Z,0.00
2017-09-04T00:44:00.003Z,0.00
2017-09-04T00:44:59.991Z,0.00
2017-09-04T00:45:59.983Z,0.00
2017-09-04T00:46:59.977Z,0.00
2017-09-04T00:47:59.968Z,0.00
2017-09-04T00:48:59.961Z,0.00
2017-09-04T00:49:59.952Z,0.00
2017-09-04T00:50:59.947Z,0.00
2017-09-04T00:51:59.938Z,0.00
2017-09-04T00:52:59.936Z,0.00
2017-09-04T00:53:59.929Z,0.00
2017-09-04T00:54:59.922Z,0.00
2017-09-04T00:55:59.914Z,0.00
2017-09-04T00:56:59.907Z,0.00
2017-09-04T00:57:59.899Z,0.00
2017-09-04T00:58:59.893Z,0.00
2017-09-04T00:59:59.884Z,0.00
2017-09-04T01:00:59.873Z,0.00
2017-09-04T01:01:59.866Z,0.00
2017-09-04T01:02:59.860Z,0.00
2017-09-04T01:03:59.852Z,0.00
2017-09-04T01:04:59.848Z,0.00
2017-09-04T01:05:59.841Z,0.00
2017-09-04T01:06:59.834Z,0.00
2017-09-04T01:07:59.826Z,0.00
2017-09-04T01:08:59.815Z,0.00
2017-09-04T01:09:59.808Z,0.00
2017-09-04T01:10:59.801Z,0.00
2017-09-04T01:11:59.792Z,0.00
2017-09-04T01:12:59.785Z,0.00
2017-09-04T01:13:59.779Z,0.00
2017-09-04T01:14:59.771Z,0.00
2017-09-04T01:15:59.764Z,0.00
2017-09-04T01:16:59.759Z,0.00
2017-09-04T01:17:59.757Z,0.00
2017-09-04T01:18:59.747Z,0.00
2017-09-04T01:19:59.738Z,0.00
2017-09-04T01:20:59.731Z,0.00
2017-09-04T01:21:59.723Z,0.00
2017-09-04T01:22:59.716Z,0.00
2017-09-04T01:23:59.708Z,0.00
2017-09-04T01:24:59.698Z,0.00
2017-09-04T01:25:59.691Z,0.00
2017-09-04T01:26:59.682Z,0.00
2017-09-04T01:27:59.674Z,0.00
2017-09-04T01:28:59.669Z,0.00
2017-09-04T01:29:59.660Z,0.00
2017-09-04T01:30:59.655Z,0.00
2017-09-04T01:31:59.647Z,0.00
2017-09-04T01:32:59.643Z,0.00
2017-09-04T01:33:59.637Z,0.00
2017-09-04T01:34:59.630Z,0.00
2017-09-04T01:35:59.622Z,0.00
2017-09-04T01:36:59.614Z,0.00
2017-09-04T01:37:59.607Z,0.00
2017-09-04T01:38:59.600Z,0.00
2017-09-04T01:39:59.590Z,0.00
2017-09-04T01:40:59.580Z,0.00
2017-09-04T01:41:59.574Z,0.00
2017-09-04T01:42:59.565Z,0.00
2017-09-04T01:43:59.558Z,0.00
2017-09-04T01:44:59.551Z,0.00
2017-09-04T01:45:59.548Z,0.00
2017-09-04T01:46:59.536Z,0.00
2017-09-04T01:47:59.528Z,0.00
2017-09-04T01:48:59.526Z,0.00
2017-09-04T01:49:59.520Z,0.00
2017-09-04T01:50:59.511Z,0.00
2017-09-04T01:51:59.502Z,0.00
2017-09-04T01:52:59.495Z,0.00
2017-09-04T01:53:59.488Z,0.00
2017-09-04T01:54:59.481Z,0.00
2017-09-04T01:55:59.473Z,0.00
2017-09-04T01:56:59.461Z,0.00
2017-09-04T01:57:59.455Z,0.00
2017-09-04T01:58:59.447Z,0.00
2017-09-04T01:59:59.439Z,0.00
2017-09-04T02:00:59.431Z,0.00
2017-09-04T02:01:59.424Z,0.00
2017-09-04T02:02:59.417Z,0.00
2017-09-04T02:03:59.409Z,0.00
2017-09-04T02:04:59.406Z,0.00
2017-09-04T02:05:59.398Z,0.00
2017-09-04T02:06:59.391Z,0.00
2017-09-04T02:07:59.383Z,0.00
2017-09-04T02:08:59.372Z,0.00
2017-09-04T02:09:59.365Z,0.00
2017-09-04T02:10:59.356Z,0.00
2017-09-04T02:11:59.348Z,0.00
2017-09-04T02:12:59.345Z,0.00
2017-09-04T02:13:59.338Z,0.00
2017-09-04T02:14:59.330Z,0.00
2017-09-04T02:15:59.321Z,0.00
2017-09-04T02:16:59.320Z,0.00
2017-09-04T02:17:59.308Z,0.00
2017-09-04T02:18:59.303Z,0.00
2017-09-04T02:19:59.292Z,0.00
2017-09-04T02:20:59.281Z,0.00
2017-09-04T02:21:59.272Z,0.00
2017-09-04T02:22:59.266Z,0.00
2017-09-04T02:23:59.257Z,0.00
2017-09-04T02:24:59.250Z,0.00
2017-09-04T02:25:59.246Z,0.00
2017-09-04T02:26:59.236Z,0.00
2017-09-04T02:27:59.227Z,0.00
2017-09-04T02:28:59.223Z,0.00
2017-09-04T02:29:59.217Z,0.00
2017-09-04T02:30:59.209Z,0.00
2017-09-04T02:31:59.200Z,0.00
2017-09-04T02:32:59.194Z,0.00
2017-09-04T02:33:59.190Z,0.00
2017-09-04T02:34:59.179Z,0.00
2017-09-04T02:35:59.170Z,0.00
2017-09-04T02:36:59.159Z,0.00
2017-09-04T02:37:59.151Z,0.00
2017-09-04T02:38:59.143Z,0.00
2017-09-04T02:39:59.135Z,0.00
2017-09-04T02:40:59.128Z,0.00
2017-09-04T02:41:59.120Z,0.00
2017-09-04T02:42:59.113Z,0.00
2017-09-04T02:43:59.105Z,0.00
2017-09-04T02:44:59.101Z,0.00
2017-09-04T02:45:59.098Z,0.00
2017-09-04T02:46:59.087Z,0.00
2017-09-04T02:47:59.078Z,0.00
2017-09-04T02:48:59.070Z,0.00
2017-09-04T02:49:59.062Z,0.00
2017-09-04T02:50:59.056Z,0.00
2017-09-04T02:51:59.047Z,0.00
2017-09-04T02:52:59.036Z,0.00
2017-09-04T02:53:59.028Z,0.00
2017-09-04T02:54:59.021Z,0.00
2017-09-04T02:55:59.012Z,0.00
2017-09-04T02:56:59.005Z,0.00
2017-09-04T02:57:58.997Z,0.00
2017-09-04T02:58:58.991Z,0.00
2017-09-04T02:59:58.981Z,0.00
2017-09-04T03:00:58.979Z,0.00
2017-09-04T03:01:58.970Z,0.00
2017-09-04T03:02:58.965Z,0.00
2017-09-04T03:03:58.955Z,0.00
2017-09-04T03:04:58.947Z,0.00
2017-09-04T03:05:58.940Z,0.00
2017-09-04T03:06:58.934Z,0.00
2017-09-04T03:07:58.949Z,0.00
2017-09-04T03:08:58.911Z,0.00
2017-09-04T03:09:58.903Z,0.00
2017-09-04T03:10:58.896Z,0.00
2017-09-04T03:11:58.888Z,0.00
2017-09-04T03:12:58.884Z,0.00
2017-09-04T03:13:58.878Z,0.00
2017-09-04T03:14:58.868Z,0.00
2017-09-04T03:15:58.861Z,0.00
2017-09-04T03:16:58.850Z,0.00
2017-09-04T03:17:58.841Z,0.00
2017-09-04T03:18:58.834Z,0.00
2017-09-04T03:19:58.825Z,0.00
2017-09-04T03:20:58.818Z,0.00
2017-09-04T03:21:58.811Z,0.00
2017-09-04T03:22:58.802Z,0.00
2017-09-04T03:23:58.794Z,0.00
2017-09-04T03:24:58.791Z,0.00
2017-09-04T03:25:58.783Z,0.00
2017-09-04T03:26:58.781Z,0.00
2017-09-04T03:27:58.766Z,0.00
2017-09-04T03:28:58.760Z,0.00
2017-09-04T03:29:58.751Z,0.00
2017-09-04T03:30:58.746Z,0.00
2017-09-04T03:31:58.735Z,0.00
2017-09-04T03:32:58.723Z,0.00
2017-09-04T03:33:58.716Z,0.00
2017-09-04T03:34:58.708Z,0.00
2017-09-04T03:35:58.700Z,0.00
2017-09-04T03:36:58.696Z,0.00
2017-09-04T03:37:58.685Z,0.00
2017-09-04T03:38:58.677Z,0.00
2017-09-04T03:39:58.668Z,0.00
2017-09-04T03:40:58.665Z,0.00
2017-09-04T03:41:58.658Z,0.00
2017-09-04T03:42:58.650Z,0.00
2017-09-04T03:43:58.641Z,0.00
2017-09-04T03:44:58.635Z,0.00
2017-09-04T03:45:58.625Z,0.00
2017-09-04T03:46:58.619Z,0.00
2017-09-04T03:47:58.609Z,0.00
2017-09-04T03:48:58.597Z,0.00
2017-09-04T03:49:58.591Z,0.00
2017-09-04T03:50:58.581Z,0.00
2017-09-04T03:51:58.575Z,0.00
2017-09-04T03:52:58.571Z,0.00
2017-09-04T03:53:58.560Z,0.00
2017-09-04T03:54:58.553Z,0.00
2017-09-04T03:55:58.544Z,0.00
2017-09-04T03:56:58.539Z,0.00
2017-09-04T03:57:58.538Z,0.00
2017-09-04T03:58:58.526Z,0.00
2017-09-04T03:59:58.516Z,0.00
2017-09-04T04:00:58.509Z,0.00
2017-09-04T04:01:58.500Z,0.00
2017-09-04T04:02:58.492Z,0.00
2017-09-04T04:03:58.486Z,0.00
2017-09-04T04:04:58.473Z,0.00
2017-09-04T04:05:58.467Z,0.00
2017-09-04T04:06:58.457Z,0.00
2017-09-04T04:07:58.448Z,0.00
2017-09-04T04:08:58.442Z,0.00
2017-09-04T04:09:58.436Z,0.00
2017-09-04T04:10:58.426Z,0.00
2017-09-04T04:11:58.417Z,0.00
2017-09-04T04:12:58.415Z,0.00
2017-09-04T04:13:58.408Z,0.00
2017-09-04T04:14:58.400Z,0.00
2017-09-04T04:15:58.390Z,0.00
2017-09-04T04:16:58.378Z,0.00
2017-09-04T04:17:58.372Z,0.00
2017-09-04T04:18:58.363Z,0.00
2017-09-04T04:19:58.355Z,4.00
2017-09-04T04:20:58.353Z,4.00
2017-09-04T04:21:58.344Z,0.00
2017-09-04T04:22:58.338Z,4.00
2017-09-04T04:23:58.328Z,4.00
2017-09-04T04:24:58.320Z,4.00
2017-09-04T04:25:58.313Z,8.00
2017-09-04T04:26:58.306Z,8.00
2017-09-04T04:27:58.297Z,8.00
2017-09-04T04:28:58.285Z,8.00
2017-09-04T04:29:58.277Z,12.00
2017-09-04T04:30:58.271Z,12.00
2017-09-04T04:31:58.262Z,12.00
2017-09-04T04:32:58.255Z,16.00
2017-09-04T04:33:58.246Z,20.00
2017-09-04T04:34:58.237Z,28.00
2017-09-04T04:35:58.231Z,28.00
2017-09-04T04:36:58.227Z,36.00
2017-09-04T04:37:58.220Z,40.00
2017-09-04T04:38:58.211Z,48.00
2017-09-04T04:39:58.204Z,52.00
2017-09-04T04:40:58.201Z,64.00
2017-09-04T04:41:58.187Z,72.00
2017-09-04T04:42:58.181Z,80.00
2017-09-04T04:43:58.171Z,96.00
2017-09-04T04:44:58.159Z,108.00
2017-09-04T04:45:58.153Z,124.00
2017-09-04T04:46:58.146Z,136.00
2017-09-04T04:47:58.137Z,156.00
2017-09-04T04:48:58.133Z,176.00
2017-09-04T04:49:58.120Z,196.00
2017-09-04T04:50:58.114Z,224.00
2017-09-04T04:51:58.104Z,248.00
2017-09-04T04:52:58.100Z,284.00
2017-09-04T04:53:58.094Z,324.00
2017-09-04T04:54:58.086Z,372.00
2017-09-04T04:55:58.077Z,408.00
2017-09-04T04:56:58.070Z,444.00
2017-09-04T04:57:58.062Z,492.00
2017-09-04T04:58:58.054Z,544.00
2017-09-04T04:59:58.047Z,608.00
2017-09-04T05:00:58.034Z,680.00
2017-09-04T05:01:58.027Z,744.00
2017-09-04T05:02:58.019Z,808.00
2017-09-04T05:03:58.012Z,872.00
2017-09-04T05:04:58.003Z,936.00
2017-09-04T05:05:57.997Z,988.00
2017-09-04T05:06:57.991Z,1040.00
2017-09-04T05:07:57.980Z,1092.00
2017-09-04T05:08:57.977Z,1148.00
2017-09-04T05:09:57.969Z,1200.00
2017-09-04T05:10:57.963Z,1252.00
2017-09-04T05:11:57.953Z,1296.00
2017-09-04T05:12:57.945Z,1340.00
2017-09-04T05:13:57.939Z,1404.00
2017-09-04T05:14:57.931Z,1512.00
2017-09-04T05:15:57.923Z,1616.00
2017-09-04T05:16:57.911Z,1676.00
2017-09-04T05:17:57.903Z,1712.00
2017-09-04T05:18:57.896Z,1752.00
2017-09-04T05:19:57.889Z,1816.00
2017-09-04T05:20:57.886Z,1844.00
2017-09-04T05:21:57.877Z,1900.00
2017-09-04T05:22:57.871Z,2016.00
2017-09-04T05:23:57.863Z,2108.00
2017-09-04T05:24:57.851Z,2392.00
2017-09-04T05:25:57.845Z,3032.00
2017-09-04T05:26:57.842Z,2776.00
2017-09-04T05:27:57.830Z,2952.00
2017-09-04T05:28:57.822Z,3344.00
2017-09-04T05:29:57.814Z,3064.00
2017-09-04T05:30:57.808Z,3540.00
2017-09-04T05:31:57.800Z,3584.00
2017-09-04T05:32:57.797Z,4588.00
2017-09-04T05:33:57.791Z,4572.00
2017-09-04T05:34:57.784Z,4908.00
2017-09-04T05:35:57.776Z,5356.00
2017-09-04T05:36:57.770Z,6636.00
2017-09-04T05:37:57.763Z,7764.00
2017-09-04T05:38:57.756Z,7732.00
2017-09-04T05:39:57.749Z,6548.00
2017-09-04T05:40:57.739Z,5408.00
2017-09-04T05:41:57.731Z,4972.00
2017-09-04T05:42:57.725Z,4440.00
2017-09-04T05:43:57.719Z,4364.00
2017-09-04T05:44:57.713Z,4724.00
2017-09-04T05:45:57.706Z,5420.00
2017-09-04T05:46:57.701Z,5908.00
2017-09-04T05:47:57.695Z,5408.00
2017-09-04T05:48:57.694Z,6204.00
2017-09-04T05:49:57.688Z,5920.00
2017-09-04T05:50:57.682Z,5196.00
2017-09-04T05:51:57.677Z,5680.00
2017-09-04T05:52:57.671Z,6056.00
2017-09-04T05:53:57.666Z,6372.00
2017-09-04T05:54:57.660Z,7096.00
2017-09-04T05:55:57.655Z,7296.00
2017-09-04T05:56:57.645Z,8076.00
2017-09-04T05:57:57.642Z,7660.00
2017-09-04T05:58:57.636Z,7276.00
2017-09-04T05:59:57.629Z,7596.00
2017-09-04T06:00:57.623Z,7348.00
2017-09-04T06:01:57.619Z,10180.00
2017-09-04T06:02:57.613Z,11848.00
2017-09-04T06:03:57.607Z,12156.00
2017-09-04T06:04:57.607Z,13248.00
2017-09-04T06:05:57.603Z,13568.00
2017-09-04T06:06:57.597Z,12864.00
2017-09-04T06:07:57.593Z,11524.00
2017-09-04T06:08:57.589Z,9488.00
2017-09-04T06:09:57.586Z,7720.00
2017-09-04T06:10:57.582Z,5628.00
2017-09-04T06:11:57.576Z,5032.00
2017-09-04T06:12:57.569Z,5068.00
2017-09-04T06:13:57.564Z,5296.00
2017-09-04T06:14:57.561Z,6172.00
2017-09-04T06:15:57.556Z,7316.00
2017-09-04T06:16:57.553Z,6544.00
2017-09-04T06:17:57.549Z,7444.00
2017-09-04T06:18:57.546Z,8612.00
2017-09-04T06:19:57.541Z,7972.00
2017-09-04T06:20:57.540Z,9820.00
2017-09-04T06:21:57.542Z,13512.00
2017-09-04T06:22:57.533Z,17216.00
2017-09-04T06:23:57.529Z,18336.00
2017-09-04T06:24:57.522Z,18496.00
2017-09-04T06:25:57.518Z,18944.00
2017-09-04T06:26:57.514Z,20480.00
2017-09-04T06:27:57.510Z,17568.00
2017-09-04T06:28:57.512Z,19904.00
2017-09-04T06:29:57.508Z,12992.00
2017-09-04T06:30:57.504Z,12704.00
2017-09-04T06:31:57.502Z,14164.00
2017-09-04T06:32:57.498Z,11224.00
2017-09-04T06:33:57.495Z,16640.00
2017-09-04T06:34:57.495Z,25600.00
2017-09-04T06:35:57.490Z,24704.00
2017-09-04T06:36:57.484Z,19872.00
2017-09-04T06:37:57.482Z,20000.00
2017-09-04T06:38:57.481Z,17792.00
2017-09-04T06:39:57.478Z,17312.00
2017-09-04T06:40:57.476Z,13064.00
2017-09-04T06:41:57.475Z,19680.00
2017-09-04T06:42:57.472Z,25088.00
2017-09-04T06:43:57.471Z,26752.00
2017-09-04T06:44:57.474Z,25952.00
2017-09-04T06:45:57.472Z,25728.00
2017-09-04T06:46:57.471Z,24128.00
2017-09-04T06:47:57.470Z,26624.00
2017-09-04T06:48:57.469Z,24256.00
2017-09-04T06:49:57.469Z,26912.00
2017-09-04T06:50:57.468Z,27872.00
2017-09-04T06:51:57.468Z,28416.00
2017-09-04T06:52:57.503Z,28320.00
2017-09-04T06:53:57.464Z,28032.00
2017-09-04T06:54:57.466Z,28768.00
2017-09-04T06:55:57.464Z,28864.00
2017-09-04T06:56:57.465Z,29056.00
2017-09-04T06:57:57.467Z,17248.00
2017-09-04T06:58:57.470Z,14244.00
2017-09-04T06:59:57.469Z,16320.00
2017-09-04T07:00:57.475Z,17728.00
2017-09-04T07:01:57.476Z,13576.00
2017-09-04T07:02:57.479Z,13028.00
2017-09-04T07:03:57.480Z,16416.00
2017-09-04T07:04:57.481Z,14320.00
2017-09-04T07:05:57.484Z,12696.00
2017-09-04T07:06:57.488Z,13304.00
2017-09-04T07:07:57.487Z,11252.00
2017-09-04T07:08:57.486Z,14640.00
2017-09-04T07:09:57.488Z,14248.00
2017-09-04T07:10:57.489Z,14496.00
2017-09-04T07:11:57.491Z,12888.00
2017-09-04T07:12:57.493Z,12352.00
2017-09-04T07:13:57.496Z,13008.00
2017-09-04T07:14:57.498Z,11728.00
2017-09-04T07:15:57.499Z,13100.00
2017-09-04T07:16:57.505Z,13040.00
2017-09-04T07:17:57.507Z,16704.00
2017-09-04T07:18:57.510Z,14024.00
2017-09-04T07:19:57.511Z,11404.00
2017-09-04T07:20:57.514Z,12052.00
2017-09-04T07:21:57.513Z,12584.00
2017-09-04T07:22:57.516Z,10000.00
2017-09-04T07:23:57.552Z,11924.00
2017-09-04T07:24:57.515Z,9004.00
2017-09-04T07:25:57.517Z,10172.00
2017-09-04T07:26:57.518Z,12380.00
2017-09-04T07:27:57.521Z,13588.00
2017-09-04T07:28:57.523Z,16352.00
2017-09-04T07:29:57.525Z,14248.00
2017-09-04T07:30:57.527Z,20352.00
2017-09-04T07:31:57.526Z,21984.00
2017-09-04T07:32:57.533Z,22912.00
2017-09-04T07:33:57.534Z,22208.00
2017-09-04T07:34:57.535Z,24384.00
2017-09-04T07:35:57.538Z,25824.00
2017-09-04T07:36:57.540Z,25888.00
2017-09-04T07:37:57.542Z,25344.00
2017-09-04T07:38:57.551Z,19936.00
2017-09-04T07:39:57.547Z,15232.00
2017-09-04T07:40:57.547Z,14876.00
2017-09-04T07:41:57.549Z,21024.00
2017-09-04T07:42:57.553Z,16032.00
2017-09-04T07:43:57.559Z,15456.00
2017-09-04T07:44:57.559Z,15936.00
2017-09-04T07:45:57.564Z,15936.00
2017-09-04T07:46:57.566Z,31168.00
2017-09-04T07:47:57.568Z,19936.00
2017-09-04T07:48:57.578Z,18912.00
2017-09-04T07:49:57.580Z,28000.00
2017-09-04T07:50:57.584Z,31392.00
2017-09-04T07:51:57.585Z,33856.00
2017-09-04T07:52:57.589Z,43072.00
2017-09-04T07:53:57.593Z,52576.00
2017-09-04T07:54:57.595Z,39904.00
2017-09-04T07:55:57.599Z,42592.00
2017-09-04T07:56:57.597Z,32896.00
2017-09-04T07:57:57.601Z,30432.00
2017-09-04T07:58:57.606Z,31296.00
2017-09-04T07:59:57.608Z,23584.00
2017-09-04T08:00:57.614Z,35872.00
2017-09-04T08:01:57.617Z,55808.00
2017-09-04T08:02:57.622Z,50272.00
2017-09-04T08:03:57.626Z,58208.00
2017-09-04T08:04:57.633Z,62144.00
2017-09-04T08:05:57.640Z,60032.00
2017-09-04T08:06:57.644Z,74944.00
2017-09-04T08:07:57.654Z,78848.00
2017-09-04T08:08:57.655Z,80608.00
2017-09-04T08:09:57.665Z,84928.00
2017-09-04T08:10:57.669Z,90944.00
2017-09-04T08:11:57.671Z,96416.00
2017-09-04T08:12:57.675Z,96256.00
2017-09-04T08:13:57.682Z,94208.00
2017-09-04T08:14:57.689Z,91136.00
2017-09-04T08:15:57.695Z,93184.00
2017-09-04T08:16:57.702Z,87360.00
2017-09-04T08:17:57.711Z,72032.00
2017-09-04T08:18:57.720Z,66048.00
2017-09-04T08:19:57.726Z,65920.00
2017-09-04T08:20:57.739Z,58656.00
2017-09-04T08:21:57.748Z,51296.00
2017-09-04T08:22:57.757Z,49408.00
2017-09-04T08:23:57.767Z,47456.00
2017-09-04T08:24:57.779Z,44224.00
2017-09-04T08:25:57.784Z,41248.00
2017-09-04T08:26:57.834Z,39936.00
2017-09-04T08:27:57.803Z,38784.00
2017-09-04T08:28:57.809Z,37696.00
2017-09-04T08:29:57.820Z,37600.00
2017-09-04T08:30:57.831Z,38272.00
2017-09-04T08:31:57.839Z,37216.00
2017-09-04T08:32:57.856Z,35968.00
2017-09-04T08:33:57.866Z,34944.00
2017-09-04T08:34:57.878Z,34976.00
2017-09-04T08:35:57.889Z,34784.00
2017-09-04T08:36:57.894Z,34784.00
2017-09-04T08:37:57.909Z,34432.00
2017-09-04T08:38:57.919Z,34176.00
2017-09-04T08:39:57.930Z,34720.00
2017-09-04T08:40:57.940Z,34912.00
2017-09-04T08:41:57.953Z,34912.00
2017-09-04T08:42:57.965Z,35264.00
2017-09-04T08:43:57.976Z,36224.00
2017-09-04T08:44:57.992Z,36896.00
2017-09-04T08:45:58.005Z,37088.00
2017-09-04T08:46:58.017Z,37472.00
2017-09-04T08:47:58.029Z,37120.00
2017-09-04T08:48:58.041Z,36576.00
2017-09-04T08:49:58.054Z,36704.00
2017-09-04T08:50:58.066Z,37088.00
2017-09-04T08:51:58.077Z,37216.00
2017-09-04T08:52:58.087Z,37888.00
2017-09-04T08:53:58.103Z,39040.00
2017-09-04T08:54:58.116Z,39392.00
2017-09-04T08:55:58.124Z,38176.00
2017-09-04T08:56:58.139Z,37184.00
2017-09-04T08:57:58.151Z,36640.00
2017-09-04T08:58:58.165Z,36672.00
2017-09-04T08:59:58.178Z,36096.00
2017-09-04T09:00:58.196Z,35776.00
2017-09-04T09:01:58.209Z,36256.00
2017-09-04T09:02:58.224Z,37408.00
2017-09-04T09:03:58.235Z,38080.00
2017-09-04T09:04:58.248Z,38240.00
2017-09-04T09:05:58.261Z,38528.00
2017-09-04T09:06:58.276Z,38528.00
2017-09-04T09:07:58.287Z,38112.00
2017-09-04T09:08:58.297Z,38080.00
2017-09-04T09:09:58.313Z,38624.00
2017-09-04T09:10:58.327Z,38816.00
2017-09-04T09:11:58.338Z,38208.00
2017-09-04T09:12:58.354Z,37088.00
2017-09-04T09:13:58.368Z,36224.00
2017-09-04T09:14:58.381Z,36032.00
2017-09-04T09:15:58.398Z,34912.00
2017-09-04T09:16:58.413Z,34400.00
2017-09-04T09:17:58.427Z,34560.00
2017-09-04T09:18:58.440Z,34496.00
2017-09-04T09:19:58.454Z,34720.00
2017-09-04T09:20:58.469Z,34848.00
2017-09-04T09:21:58.481Z,35488.00
2017-09-04T09:22:58.495Z,36256.00
2017-09-04T09:23:58.508Z,36256.00
2017-09-04T09:24:58.518Z,35744.00
2017-09-04T09:25:58.531Z,32608.00
2017-09-04T09:26:58.545Z,29056.00
2017-09-04T09:27:58.558Z,26944.00
2017-09-04T09:28:58.570Z,26464.00
2017-09-04T09:29:58.582Z,26016.00
2017-09-04T09:30:58.597Z,25696.00
2017-09-04T09:31:58.608Z,25344.00
2017-09-04T09:32:58.625Z,25152.00
2017-09-04T09:33:58.664Z,25312.00
2017-09-04T09:34:58.650Z,25440.00
2017-09-04T09:35:58.663Z,25152.00
2017-09-04T09:36:58.670Z,24928.00
2017-09-04T09:37:58.685Z,24704.00
2017-09-04T09:38:58.698Z,24544.00
2017-09-04T09:39:58.708Z,24896.00
2017-09-04T09:40:58.726Z,25088.00
2017-09-04T09:41:58.738Z,25408.00
2017-09-04T09:42:58.750Z,25632.00
2017-09-04T09:43:58.762Z,25696.00
2017-09-04T09:44:58.776Z,25568.00
2017-09-04T09:45:58.788Z,25792.00
2017-09-04T09:46:58.800Z,26048.00
2017-09-04T09:47:58.813Z,25632.00
2017-09-04T09:48:58.821Z,25792.00
2017-09-04T09:49:58.833Z,22592.00
2017-09-04T09:50:58.847Z,25280.00
2017-09-04T09:51:58.858Z,25792.00
2017-09-04T09:52:58.872Z,26720.00
2017-09-04T09:53:58.884Z,27072.00
2017-09-04T09:54:58.899Z,27232.00
2017-09-04T09:55:58.910Z,27488.00
2017-09-04T09:56:58.927Z,28384.00
2017-09-04T09:57:58.940Z,29408.00
2017-09-04T09:58:58.952Z,30048.00
2017-09-04T09:59:58.965Z,30304.00
2017-09-04T10:00:58.978Z,29792.00
2017-09-04T10:01:58.989Z,29312.00
2017-09-04T10:02:59.006Z,29344.00
2017-09-04T10:03:59.016Z,28896.00
2017-09-04T10:04:59.024Z,28992.00
2017-09-04T10:05:59.037Z,29248.00
2017-09-04T10:06:59.050Z,29184.00
2017-09-04T10:07:59.063Z,29120.00
2017-09-04T10:08:59.076Z,29568.00
2017-09-04T10:09:59.090Z,29760.00
2017-09-04T10:10:59.103Z,29984.00
2017-09-04T10:11:59.114Z,29856.00
2017-09-04T10:12:59.132Z,29824.00
2017-09-04T10:13:59.147Z,29856.00
2017-09-04T10:14:59.159Z,29760.00
2017-09-04T10:15:59.173Z,29728.00
2017-09-04T10:16:59.187Z,29824.00
2017-09-04T10:17:59.200Z,29984.00
2017-09-04T10:18:59.213Z,30112.00
2017-09-04T10:19:59.226Z,29568.00
2017-09-04T10:20:59.235Z,29472.00
2017-09-04T10:21:59.250Z,29536.00
2017-09-04T10:22:59.263Z,29856.00
2017-09-04T10:23:59.276Z,29984.00
2017-09-04T10:24:59.290Z,29728.00
2017-09-04T10:25:59.304Z,29760.00
2017-09-04T10:26:59.317Z,29056.00
2017-09-04T10:27:59.331Z,28672.00
2017-09-04T10:28:59.350Z,28768.00
2017-09-04T10:29:59.362Z,28992.00
2017-09-04T10:30:59.377Z,29152.00
2017-09-04T10:31:59.390Z,28928.00
2017-09-04T10:32:59.403Z,28736.00
2017-09-04T10:33:59.420Z,27712.00
2017-09-04T10:34:59.432Z,28576.00
2017-09-04T10:35:59.445Z,28192.00
2017-09-04T10:36:59.456Z,27872.00
2017-09-04T10:37:59.469Z,28032.00
2017-09-04T10:38:59.485Z,28000.00
2017-09-04T10:39:59.497Z,27616.00
2017-09-04T10:40:59.515Z,27456.00
2017-09-04T10:41:59.530Z,27488.00
2017-09-04T10:42:59.543Z,27424.00
2017-09-04T10:43:59.557Z,27552.00
2017-09-04T10:44:59.566Z,27712.00
2017-09-04T10:45:59.580Z,28192.00
2017-09-04T10:46:59.595Z,28192.00
2017-09-04T10:47:59.608Z,28352.00
2017-09-04T10:48:59.621Z,28160.00
2017-09-04T10:49:59.635Z,28320.00
2017-09-04T10:50:59.649Z,27808.00
2017-09-04T10:51:59.662Z,26560.00
2017-09-04T10:52:59.680Z,28032.00
2017-09-04T10:53:59.693Z,27712.00
2017-09-04T10:54:59.708Z,27232.00
2017-09-04T10:55:59.720Z,14272.00
2017-09-04T10:56:59.733Z,28256.00
2017-09-04T10:57:59.746Z,28160.00
2017-09-04T10:58:59.761Z,27968.00
2017-09-04T10:59:59.772Z,28928.00
2017-09-04T11:00:59.784Z,29248.00
2017-09-04T11:01:59.797Z,28768.00
2017-09-04T11:02:59.810Z,29152.00
2017-09-04T11:03:59.822Z,30592.00
2017-09-04T11:04:59.835Z,30368.00
2017-09-04T11:05:59.849Z,30176.00
2017-09-04T11:06:59.863Z,29280.00
2017-09-04T11:07:59.895Z,30464.00
2017-09-04T11:08:59.892Z,30528.00
2017-09-04T11:09:59.906Z,28864.00
2017-09-04T11:10:59.921Z,28832.00
2017-09-04T11:11:59.938Z,27328.00
2017-09-04T11:12:59.946Z,27872.00
2017-09-04T11:13:59.964Z,27104.00
2017-09-04T11:14:59.974Z,26336.00
2017-09-04T11:15:59.986Z,25696.00
2017-09-04T11:16:59.995Z,29376.00
2017-09-04T11:18:00.010Z,29920.00
2017-09-04T11:19:00.022Z,25632.00
2017-09-04T11:20:00.034Z,26912.00
2017-09-04T11:21:00.046Z,26592.00
2017-09-04T11:22:00.058Z,12948.00
2017-09-04T11:23:00.071Z,9780.00
2017-09-04T11:24:00.084Z,12800.00
2017-09-04T11:25:00.098Z,11088.00
2017-09-04T11:26:00.111Z,10388.00
2017-09-04T11:27:00.121Z,10180.00
2017-09-04T11:28:00.133Z,10644.00
2017-09-04T11:29:00.143Z,10912.00
2017-09-04T11:30:00.155Z,8988.00
2017-09-04T11:31:00.164Z,8756.00
2017-09-04T11:32:00.173Z,10508.00
2017-09-04T11:33:00.179Z,11244.00
2017-09-04T11:34:00.188Z,10912.00
2017-09-04T11:35:00.198Z,9936.00
2017-09-04T11:36:00.205Z,9224.00
2017-09-04T11:37:00.213Z,9252.00
2017-09-04T11:38:00.221Z,9288.00
2017-09-04T11:39:00.228Z,9980.00
2017-09-04T11:40:00.235Z,10532.00
2017-09-04T11:41:00.247Z,10828.00
2017-09-04T11:42:00.253Z,11456.00
2017-09-04T11:43:00.260Z,12032.00
2017-09-04T11:44:00.270Z,11644.00
2017-09-04T11:45:00.268Z,11404.00
2017-09-04T11:46:00.274Z,11224.00
2017-09-04T11:47:00.281Z,11628.00
2017-09-04T11:48:00.285Z,10840.00
2017-09-04T11:49:00.296Z,11664.00
2017-09-04T11:50:00.301Z,10680.00
2017-09-04T11:51:00.308Z,9092.00
2017-09-04T11:52:00.312Z,10060.00
2017-09-04T11:53:00.317Z,9884.00
2017-09-04T11:54:00.321Z,10588.00
2017-09-04T11:55:00.327Z,9848.00
2017-09-04T11:56:00.332Z,10008.00
2017-09-04T11:57:00.332Z,9236.00
2017-09-04T11:58:00.339Z,8864.00
2017-09-04T11:59:00.341Z,8744.00
2017-09-04T12:00:00.344Z,8244.00
2017-09-04T12:01:00.350Z,7584.00
2017-09-04T12:02:00.355Z,7748.00
2017-09-04T12:03:00.359Z,8576.00
2017-09-04T12:04:00.361Z,9472.00
2017-09-04T12:05:00.374Z,9992.00
2017-09-04T12:06:00.374Z,10548.00
2017-09-04T12:07:00.376Z,9588.00
2017-09-04T12:08:00.380Z,11824.00
2017-09-04T12:09:00.382Z,10860.00
2017-09-04T12:10:00.386Z,10968.00
2017-09-04T12:11:00.391Z,10864.00
2017-09-04T12:12:00.397Z,10480.00
2017-09-04T12:13:00.393Z,8816.00
2017-09-04T12:14:00.395Z,7756.00
2017-09-04T12:15:00.398Z,7864.00
2017-09-04T12:16:00.401Z,7712.00
2017-09-04T12:17:00.405Z,7572.00
2017-09-04T12:18:00.407Z,7620.00
2017-09-04T12:19:00.411Z,7532.00
2017-09-04T12:20:00.413Z,8100.00
2017-09-04T12:21:00.418Z,8188.00